createdAt,value
2018-12-04T00:00:07.075Z,10.17
2018-12-04T00:01:07.073Z,10.19
2018-12-04T00:02:07.070Z,10.14
2018-12-04T00:03:07.070Z,10.21
2018-12-04T00:04:07.091Z,10.12
2018-12-04T00:05:07.067Z,10.09
2018-12-04T00:06:07.059Z,10.19
2018-12-04T00:07:07.100Z,10.17
2018-12-04T00:08:07.059Z,10.04
2018-12-04T00:09:07.079Z,10.06
2018-12-04T00:10:07.048Z,10.15
2018-12-04T00:20:17.274Z,9.96
2018-12-04T00:21:17.254Z,10.03
2018-12-04T00:22:17.263Z,9.88
2018-12-04T00:23:17.242Z,9.85
2018-12-04T00:24:17.262Z,9.94
2018-12-04T00:25:17.238Z,9.89
2018-12-04T00:26:17.234Z,9.94
2018-12-04T00:27:17.229Z,9.88
2018-12-04T00:28:17.227Z,9.89
2018-12-04T00:29:17.250Z,10.00
2018-12-04T00:30:17.238Z,9.86
2018-12-04T00:31:17.225Z,9.82
2018-12-04T00:32:17.215Z,9.83
2018-12-04T00:33:17.213Z,9.75
2018-12-04T00:34:17.234Z,9.82
2018-12-04T00:35:17.206Z,9.78
2018-12-04T00:36:17.202Z,9.78
2018-12-04T00:37:17.201Z,9.64
2018-12-04T00:38:17.200Z,9.61
2018-12-04T00:39:17.232Z,9.66
2018-12-04T00:40:17.263Z,9.66
2018-12-04T00:41:17.193Z,9.66
2018-12-04T00:42:17.186Z,9.68
2018-12-04T00:43:17.181Z,9.68
2018-12-04T00:44:17.205Z,9.64
2018-12-04T00:45:17.184Z,9.61
2018-12-04T00:46:17.176Z,9.66
2018-12-04T00:47:17.169Z,9.66
2018-12-04T00:48:17.169Z,9.63
2018-12-04T00:49:17.190Z,9.61
2018-12-04T00:50:17.162Z,9.56
2018-12-04T00:51:17.157Z,9.67
2018-12-04T00:52:17.156Z,9.81
2018-12-04T00:53:17.152Z,9.76
2018-12-04T00:54:17.178Z,9.76
2018-12-04T00:55:17.152Z,9.96
2018-12-04T00:56:17.144Z,9.85
2018-12-04T00:57:17.141Z,9.91
2018-12-04T00:58:17.138Z,9.94
2018-12-04T00:59:17.161Z,9.88
2018-12-04T01:00:17.140Z,9.82
2018-12-04T01:01:17.128Z,9.88
2018-12-04T01:02:17.132Z,9.76
2018-12-04T01:03:17.123Z,9.76
2018-12-04T01:04:17.144Z,9.73
2018-12-04T01:05:17.118Z,9.68
2018-12-04T01:06:17.113Z,9.64
2018-12-04T01:07:17.109Z,9.70
2018-12-04T01:08:17.110Z,9.78
2018-12-04T01:09:17.152Z,9.88
2018-12-04T01:10:17.109Z,9.83
2018-12-04T01:11:17.098Z,9.86
2018-12-04T01:12:17.098Z,9.81
2018-12-04T01:13:17.092Z,9.86
2018-12-04T01:14:17.117Z,9.82
2018-12-04T01:15:17.089Z,9.79
2018-12-04T01:16:17.084Z,9.85
2018-12-04T01:17:17.083Z,9.86
2018-12-04T01:18:17.077Z,9.96
2018-12-04T01:19:17.105Z,9.93
2018-12-04T01:20:17.077Z,9.99
2018-12-04T01:21:17.079Z,9.97
2018-12-04T01:22:17.066Z,9.91
2018-12-04T01:23:17.063Z,10.07
2018-12-04T01:24:17.084Z,10.03
2018-12-04T01:25:17.058Z,10.04
2018-12-04T01:26:17.060Z,10.14
2018-12-04T01:27:17.055Z,10.17
2018-12-04T01:28:17.052Z,10.24
2018-12-04T01:29:17.071Z,10.19
2018-12-04T01:30:17.041Z,10.15
2018-12-04T01:31:17.039Z,10.22
2018-12-04T01:32:17.036Z,10.21
2018-12-04T01:33:17.034Z,10.18
2018-12-04T01:34:17.057Z,10.25
2018-12-04T01:35:17.029Z,10.15
2018-12-04T01:36:17.027Z,10.18
2018-12-04T01:37:17.025Z,10.14
2018-12-04T01:38:17.056Z,10.19
2018-12-04T01:39:17.040Z,10.18
2018-12-04T01:40:17.021Z,10.15
2018-12-04T01:41:17.012Z,10.26
2018-12-04T01:42:17.006Z,10.28
2018-12-04T01:43:17.009Z,10.28
2018-12-04T01:44:17.028Z,10.32
2018-12-04T01:45:17.001Z,10.32
2018-12-04T01:46:17.000Z,10.24
2018-12-04T01:47:16.994Z,10.25
2018-12-04T01:48:16.993Z,10.28
2018-12-04T01:49:17.038Z,10.26
2018-12-04T01:50:16.988Z,10.25
2018-12-04T01:51:16.989Z,10.37
2018-12-04T01:52:16.978Z,10.26
2018-12-04T01:53:16.976Z,10.32
2018-12-04T01:54:17.008Z,10.39
2018-12-04T01:55:16.973Z,10.26
2018-12-04T01:56:16.973Z,10.33
2018-12-04T01:57:16.967Z,10.26
2018-12-04T01:58:16.964Z,10.33
2018-12-04T01:59:16.992Z,10.30
2018-12-04T02:00:16.963Z,10.17
2018-12-04T02:01:16.957Z,10.25
2018-12-04T02:02:16.953Z,10.26
2018-12-04T02:03:16.951Z,10.28
2018-12-04T02:04:16.976Z,10.24
2018-12-04T02:05:16.947Z,10.25
2018-12-04T02:06:16.980Z,10.15
2018-12-04T02:07:16.937Z,10.19
2018-12-04T02:08:16.960Z,10.15
2018-12-04T02:09:16.936Z,10.07
2018-12-04T02:10:16.941Z,10.03
2018-12-04T02:11:16.929Z,10.03
2018-12-04T02:12:16.925Z,10.06
2018-12-04T02:13:16.948Z,10.03
2018-12-04T02:14:16.923Z,10.09
2018-12-04T02:15:16.917Z,10.00
2018-12-04T02:16:16.916Z,10.03
2018-12-04T02:17:16.910Z,10.03
2018-12-04T02:18:16.940Z,10.07
2018-12-04T02:19:16.912Z,10.15
2018-12-04T02:20:16.914Z,10.17
2018-12-04T02:21:16.899Z,10.10
2018-12-04T02:22:16.897Z,10.10
2018-12-04T02:23:16.922Z,10.18
2018-12-04T02:24:16.891Z,10.17
2018-12-04T02:25:16.892Z,10.17
2018-12-04T02:26:16.887Z,10.18
2018-12-04T02:27:16.885Z,10.17
2018-12-04T02:28:16.920Z,10.14
2018-12-04T02:29:16.875Z,10.18
2018-12-04T02:30:16.886Z,10.18
2018-12-04T02:31:16.875Z,10.10
2018-12-04T02:32:16.867Z,10.25
2018-12-04T02:33:16.891Z,10.17
2018-12-04T02:34:16.863Z,10.17
2018-12-04T02:35:16.864Z,10.22
2018-12-04T02:36:16.864Z,10.14
2018-12-04T02:37:16.857Z,10.22
2018-12-04T02:38:16.878Z,10.22
2018-12-04T02:39:16.851Z,10.18
2018-12-04T02:40:16.847Z,10.21
2018-12-04T02:41:16.848Z,10.17
2018-12-04T02:42:16.846Z,10.14
2018-12-04T02:43:16.862Z,10.21
2018-12-04T02:44:16.837Z,10.15
2018-12-04T02:45:16.837Z,10.19
2018-12-04T02:46:16.838Z,10.17
2018-12-04T02:47:16.829Z,10.19
2018-12-04T02:48:16.851Z,10.06
2018-12-04T02:49:16.832Z,10.09
2018-12-04T02:50:16.823Z,10.06
2018-12-04T02:51:16.822Z,10.10
2018-12-04T02:52:16.841Z,10.03
2018-12-04T02:53:16.817Z,10.10
2018-12-04T02:54:16.839Z,10.06
2018-12-04T02:55:16.827Z,10.10
2018-12-04T02:56:16.804Z,9.99
2018-12-04T02:57:16.804Z,10.10
2018-12-04T02:58:16.824Z,10.06
2018-12-04T02:59:16.796Z,10.09
2018-12-04T03:00:16.802Z,10.04
2018-12-04T03:01:16.792Z,9.97
2018-12-04T03:02:16.800Z,10.04
2018-12-04T03:03:16.814Z,10.07
2018-12-04T03:04:16.783Z,10.06
2018-12-04T03:05:16.792Z,10.09
2018-12-04T03:06:16.780Z,10.06
2018-12-04T03:07:16.776Z,10.06
2018-12-04T03:08:16.797Z,10.03
2018-12-04T03:09:16.773Z,10.04
2018-12-04T03:10:17.309Z,10.07
2018-12-04T03:11:16.762Z,10.01
2018-12-04T03:12:16.765Z,10.10
2018-12-04T03:13:16.789Z,10.06
2018-12-04T03:14:16.759Z,10.03
2018-12-04T03:15:16.756Z,10.06
2018-12-04T03:16:16.750Z,10.03
2018-12-04T03:17:16.748Z,9.96
2018-12-04T03:18:16.772Z,10.04
2018-12-04T03:19:16.741Z,10.04
2018-12-04T03:20:16.747Z,10.06
2018-12-04T03:21:16.737Z,10.04
2018-12-04T03:22:16.735Z,10.09
2018-12-04T03:23:16.758Z,9.93
2018-12-04T03:24:16.726Z,9.99
2018-12-04T03:25:16.724Z,9.85
2018-12-04T03:26:16.725Z,9.93
2018-12-04T03:27:16.722Z,9.91
2018-12-04T03:28:16.744Z,9.83
2018-12-04T03:29:16.716Z,9.79
2018-12-04T03:30:16.714Z,9.73
2018-12-04T03:31:16.725Z,9.78
2018-12-04T03:32:16.733Z,9.66
2018-12-04T03:33:16.713Z,9.71
2018-12-04T03:34:16.702Z,9.68
2018-12-04T03:35:16.703Z,9.66
2018-12-04T03:36:16.699Z,9.64
2018-12-04T03:37:16.722Z,9.67
2018-12-04T03:38:16.693Z,9.63
2018-12-04T03:39:16.686Z,9.66
2018-12-04T03:40:16.683Z,9.64
2018-12-04T03:41:16.680Z,9.66
2018-12-04T03:42:16.706Z,9.63
2018-12-04T03:43:16.673Z,9.66
2018-12-04T03:44:16.676Z,9.71
2018-12-04T03:45:16.672Z,9.70
2018-12-04T03:46:16.671Z,9.66
2018-12-04T03:47:16.687Z,9.75
2018-12-04T03:48:16.692Z,9.66
2018-12-04T03:49:16.665Z,9.75
2018-12-04T03:50:16.653Z,9.68
2018-12-04T03:51:16.649Z,9.63
2018-12-04T03:52:16.648Z,9.63
2018-12-04T03:53:16.672Z,9.67
2018-12-04T03:54:16.645Z,9.68
2018-12-04T03:55:16.641Z,9.63
2018-12-04T03:56:16.636Z,9.63
2018-12-04T03:57:16.632Z,9.68
2018-12-04T03:58:16.653Z,9.68
2018-12-04T03:59:16.628Z,9.68
2018-12-04T04:00:16.627Z,9.73
2018-12-04T04:01:16.620Z,9.60
2018-12-04T04:02:16.618Z,9.61
2018-12-04T04:03:16.641Z,9.53
2018-12-04T04:04:16.611Z,9.56
2018-12-04T04:05:16.613Z,9.56
2018-12-04T04:06:16.603Z,9.48
2018-12-04T04:07:16.602Z,9.38
2018-12-04T04:08:16.624Z,9.13
2018-12-04T04:09:16.597Z,8.76
2018-12-04T04:10:17.303Z,8.62
2018-12-04T04:11:16.589Z,8.48
2018-12-04T04:12:16.594Z,8.28
2018-12-04T04:13:16.612Z,8.29
2018-12-04T04:14:16.586Z,8.14
2018-12-04T04:15:16.576Z,8.20
2018-12-04T04:16:16.574Z,8.17
2018-12-04T04:17:16.572Z,8.17
2018-12-04T04:18:16.600Z,8.08
2018-12-04T04:19:16.567Z,8.17
2018-12-04T04:20:16.610Z,8.18
2018-12-04T04:21:16.576Z,8.11
2018-12-04T04:22:16.557Z,8.14
2018-12-04T04:23:16.578Z,8.15
2018-12-04T04:24:16.548Z,8.12
2018-12-04T04:25:16.546Z,8.21
2018-12-04T04:26:16.541Z,8.17
2018-12-04T04:27:16.536Z,8.17
2018-12-04T04:28:16.564Z,8.15
2018-12-04T04:29:16.529Z,8.17
2018-12-04T04:30:16.526Z,8.14
2018-12-04T04:31:16.529Z,8.21
2018-12-04T04:32:16.523Z,8.25
2018-12-04T04:33:16.545Z,8.14
2018-12-04T04:34:16.516Z,8.18
2018-12-04T04:35:16.509Z,8.21
2018-12-04T04:36:16.505Z,8.21
2018-12-04T04:37:16.502Z,8.20
2018-12-04T04:38:16.526Z,8.21
2018-12-04T04:39:16.494Z,8.26
2018-12-04T04:40:16.495Z,8.26
2018-12-04T04:41:16.489Z,8.22
2018-12-04T04:42:16.492Z,8.20
2018-12-04T04:43:16.507Z,8.26
2018-12-04T04:44:16.480Z,8.30
2018-12-04T04:45:16.483Z,8.30
2018-12-04T04:46:16.519Z,8.30
2018-12-04T04:47:16.465Z,8.33
2018-12-04T04:48:16.494Z,8.28
2018-12-04T04:49:16.467Z,8.32
2018-12-04T04:50:16.453Z,8.30
2018-12-04T04:51:16.458Z,8.36
2018-12-04T04:52:16.449Z,8.21
2018-12-04T04:53:16.482Z,8.30
2018-12-04T04:54:16.446Z,8.30
2018-12-04T04:55:16.438Z,8.32
2018-12-04T04:56:16.438Z,8.26
2018-12-04T04:57:16.436Z,8.26
2018-12-04T04:58:16.457Z,8.30
2018-12-04T04:59:16.426Z,8.30
2018-12-04T05:00:16.421Z,8.26
2018-12-04T05:01:16.419Z,8.32
2018-12-04T05:02:16.444Z,8.25
2018-12-04T05:03:16.410Z,8.30
2018-12-04T05:04:16.406Z,8.36
2018-12-04T05:05:16.410Z,8.32
2018-12-04T05:06:16.920Z,8.30
2018-12-04T05:07:16.425Z,8.25
2018-12-04T05:08:16.589Z,8.26
2018-12-04T05:09:16.395Z,8.26
2018-12-04T05:10:16.385Z,8.26
2018-12-04T05:11:16.382Z,8.25
2018-12-04T05:12:16.379Z,8.26
2018-12-04T05:13:16.403Z,8.17
2018-12-04T05:14:16.376Z,8.03
2018-12-04T05:15:16.370Z,8.04
2018-12-04T05:16:16.366Z,8.10
2018-12-04T05:17:16.361Z,7.97
2018-12-04T05:18:16.384Z,7.96
2018-12-04T05:19:16.353Z,7.97
2018-12-04T05:20:16.351Z,7.97
2018-12-04T05:21:16.349Z,7.92
2018-12-04T05:22:16.343Z,7.90
2018-12-04T05:23:16.367Z,7.85
2018-12-04T05:24:16.339Z,7.81
2018-12-04T05:25:16.334Z,7.78
2018-12-04T05:26:16.331Z,7.77
2018-12-04T05:27:16.353Z,7.69
2018-12-04T05:28:16.320Z,7.69
2018-12-04T05:29:16.344Z,7.72
2018-12-04T05:30:16.316Z,7.67
2018-12-04T05:31:16.310Z,7.62
2018-12-04T05:32:16.311Z,7.59
2018-12-04T05:33:16.328Z,7.50
2018-12-04T05:34:16.301Z,7.49
2018-12-04T05:35:16.297Z,7.47
2018-12-04T05:36:16.292Z,7.50
2018-12-04T05:37:16.291Z,7.49
2018-12-04T05:38:16.315Z,7.52
2018-12-04T05:39:16.281Z,7.49
2018-12-04T05:40:16.279Z,7.37
2018-12-04T05:41:16.276Z,7.34
2018-12-04T05:42:16.272Z,7.34
2018-12-04T05:43:16.290Z,7.29
2018-12-04T05:44:16.262Z,7.26
2018-12-04T05:45:16.258Z,7.26
2018-12-04T05:46:16.255Z,7.22
2018-12-04T05:47:16.252Z,7.17
2018-12-04T05:48:16.275Z,7.08
2018-12-04T05:49:16.241Z,7.01
2018-12-04T05:50:16.239Z,7.04
2018-12-04T05:51:16.234Z,6.98
2018-12-04T05:52:16.235Z,6.99
2018-12-04T05:53:16.259Z,6.95
2018-12-04T05:54:16.250Z,6.86
2018-12-04T05:55:16.216Z,6.90
2018-12-04T05:56:16.217Z,6.81
2018-12-04T05:57:16.215Z,6.84
2018-12-04T05:58:16.207Z,6.90
2018-12-04T05:59:16.228Z,6.69
2018-12-04T06:00:16.199Z,6.86
2018-12-04T06:01:16.193Z,6.95
2018-12-04T06:02:16.192Z,6.94
2018-12-04T06:03:16.188Z,6.76
2018-12-04T06:04:16.217Z,6.83
2018-12-04T06:05:16.180Z,6.80
2018-12-04T06:06:16.187Z,6.73
2018-12-04T06:07:16.169Z,6.87
2018-12-04T06:08:16.164Z,6.84
2018-12-04T06:09:16.191Z,6.73
2018-12-04T06:10:16.155Z,6.73
2018-12-04T06:11:16.169Z,6.69
2018-12-04T06:12:16.148Z,6.73
2018-12-04T06:13:16.146Z,6.77
2018-12-04T06:14:16.164Z,6.77
2018-12-04T06:15:16.135Z,6.66
2018-12-04T06:16:16.131Z,6.77
2018-12-04T06:17:16.127Z,6.71
2018-12-04T06:18:16.124Z,6.68
2018-12-04T06:19:16.147Z,6.68
2018-12-04T06:20:16.112Z,6.68
2018-12-04T06:21:16.113Z,6.63
2018-12-04T06:22:16.104Z,6.65
2018-12-04T06:23:16.102Z,6.63
2018-12-04T06:24:16.123Z,6.63
2018-12-04T06:25:16.095Z,6.66
2018-12-04T06:26:16.088Z,6.66
2018-12-04T06:27:16.082Z,6.65
2018-12-04T06:28:16.083Z,6.69
2018-12-04T06:29:16.101Z,6.65
2018-12-04T06:30:16.070Z,6.63
2018-12-04T06:31:16.068Z,6.61
2018-12-04T06:32:16.059Z,6.66
2018-12-04T06:33:16.059Z,6.62
2018-12-04T06:34:16.080Z,6.66
2018-12-04T06:35:16.050Z,6.62
2018-12-04T06:36:16.044Z,6.65
2018-12-04T06:37:16.046Z,6.62
2018-12-04T06:38:16.039Z,6.69
2018-12-04T06:39:16.060Z,6.66
2018-12-04T06:40:16.030Z,6.72
2018-12-04T06:41:16.025Z,6.63
2018-12-04T06:42:16.020Z,6.61
2018-12-04T06:43:16.014Z,6.69
2018-12-04T06:44:16.038Z,6.63
2018-12-04T06:45:16.033Z,6.61
2018-12-04T06:46:16.002Z,6.61
2018-12-04T06:47:15.995Z,6.69
2018-12-04T06:48:15.991Z,6.61
2018-12-04T06:49:16.015Z,6.61
2018-12-04T06:50:15.984Z,6.62
2018-12-04T06:51:15.981Z,6.69
2018-12-04T06:52:15.975Z,6.66
2018-12-04T06:53:15.970Z,6.65
2018-12-04T06:54:15.993Z,6.63
2018-12-04T06:55:15.989Z,6.65
2018-12-04T06:56:15.959Z,6.65
2018-12-04T06:57:16.483Z,6.56
2018-12-04T06:58:15.950Z,6.63
2018-12-04T06:59:15.948Z,6.65
2018-12-04T07:00:15.964Z,6.58
2018-12-04T07:01:15.935Z,6.65
2018-12-04T07:02:15.931Z,6.58
2018-12-04T07:03:15.925Z,6.59
2018-12-04T07:04:15.926Z,6.56
2018-12-04T07:05:15.945Z,6.56
2018-12-04T07:06:15.914Z,6.58
2018-12-04T07:07:15.908Z,6.65
2018-12-04T07:08:16.871Z,6.63
2018-12-04T07:09:15.900Z,6.68
2018-12-04T07:10:15.926Z,6.65
2018-12-04T07:11:15.895Z,6.65
2018-12-04T07:12:15.887Z,6.61
2018-12-04T07:13:15.885Z,6.54
2018-12-04T07:14:15.880Z,6.56
2018-12-04T07:15:15.944Z,6.65
2018-12-04T07:16:15.874Z,6.53
2018-12-04T07:17:15.865Z,6.53
2018-12-04T07:18:15.867Z,6.53
2018-12-04T07:19:15.862Z,6.46
2018-12-04T07:20:15.877Z,6.54
2018-12-04T07:21:15.850Z,6.51
2018-12-04T07:22:15.905Z,6.53
2018-12-04T07:23:15.837Z,6.47
2018-12-04T07:24:15.834Z,6.44
2018-12-04T07:25:15.856Z,6.54
2018-12-04T07:26:15.885Z,6.44
2018-12-04T07:27:15.825Z,6.51
2018-12-04T07:28:15.827Z,6.48
2018-12-04T07:29:15.818Z,6.50
2018-12-04T07:30:15.841Z,6.51
2018-12-04T07:31:15.803Z,6.56
2018-12-04T07:32:15.800Z,6.47
2018-12-04T07:33:15.796Z,6.54
2018-12-04T07:34:15.791Z,6.53
2018-12-04T07:35:15.812Z,6.54
2018-12-04T07:36:15.782Z,6.53
2018-12-04T07:37:15.777Z,6.50
2018-12-04T07:38:15.771Z,6.50
2018-12-04T07:39:15.771Z,6.50
2018-12-04T07:40:15.790Z,6.43
2018-12-04T07:41:15.760Z,6.48
2018-12-04T07:42:15.757Z,6.50
2018-12-04T07:43:15.751Z,6.41
2018-12-04T07:44:15.754Z,6.56
2018-12-04T07:45:15.771Z,6.53
2018-12-04T07:46:15.737Z,6.53
2018-12-04T07:47:15.734Z,6.53
2018-12-04T07:48:15.731Z,6.50
2018-12-04T07:49:15.723Z,6.43
2018-12-04T07:50:15.747Z,6.53
2018-12-04T07:51:15.716Z,6.56
2018-12-04T07:52:15.710Z,6.54
2018-12-04T07:53:15.706Z,6.53
2018-12-04T07:54:15.701Z,6.43
2018-12-04T07:55:15.727Z,6.48
2018-12-04T07:56:15.690Z,6.43
2018-12-04T07:57:15.687Z,6.44
2018-12-04T07:58:15.879Z,6.51
2018-12-04T07:59:15.677Z,6.51
2018-12-04T08:00:15.710Z,6.56
2018-12-04T08:01:15.671Z,6.56
2018-12-04T08:02:15.672Z,6.53
2018-12-04T08:03:15.659Z,6.56
2018-12-04T08:04:15.656Z,6.58
2018-12-04T08:05:15.681Z,6.50
2018-12-04T08:06:15.650Z,6.51
2018-12-04T08:07:15.643Z,6.59
2018-12-04T08:08:15.646Z,6.53
2018-12-04T08:09:15.670Z,6.62
2018-12-04T08:10:15.667Z,6.58
2018-12-04T08:11:15.623Z,6.62
2018-12-04T08:12:15.623Z,6.59
2018-12-04T08:13:15.616Z,6.54
2018-12-04T08:14:15.612Z,6.56
2018-12-04T08:15:15.632Z,6.65
2018-12-04T08:16:15.609Z,6.59
2018-12-04T08:17:15.600Z,6.62
2018-12-04T08:18:15.595Z,6.59
2018-12-04T08:19:15.598Z,6.71
2018-12-04T08:20:15.612Z,6.72
2018-12-04T08:21:15.582Z,6.63
2018-12-04T08:22:15.577Z,6.66
2018-12-04T08:23:15.570Z,6.71
2018-12-04T08:24:15.569Z,6.69
2018-12-04T08:25:15.589Z,6.72
2018-12-04T08:26:15.563Z,6.69
2018-12-04T08:27:15.553Z,6.73
2018-12-04T08:28:15.552Z,6.84
2018-12-04T08:29:15.547Z,6.84
2018-12-04T08:30:15.593Z,6.95
2018-12-04T08:31:15.536Z,6.99
2018-12-04T08:32:15.533Z,7.01
2018-12-04T08:33:15.528Z,6.99
2018-12-04T08:34:15.529Z,6.95
2018-12-04T08:35:15.548Z,6.89
2018-12-04T08:36:15.520Z,6.89
2018-12-04T08:37:15.519Z,6.83
2018-12-04T08:38:15.509Z,6.86
2018-12-04T08:39:15.505Z,6.90
2018-12-04T08:40:15.529Z,6.76
2018-12-04T08:41:15.501Z,6.83
2018-12-04T08:42:15.497Z,6.83
2018-12-04T08:43:15.489Z,6.84
2018-12-04T08:44:15.489Z,6.87
2018-12-04T08:45:15.517Z,6.77
2018-12-04T08:46:15.492Z,6.73
2018-12-04T08:47:15.475Z,6.77
2018-12-04T08:48:15.467Z,6.81
2018-12-04T08:49:15.523Z,6.83
2018-12-04T08:50:15.513Z,6.79
2018-12-04T08:51:15.457Z,6.83
2018-12-04T08:52:15.453Z,6.97
2018-12-04T08:53:15.451Z,6.89
2018-12-04T08:54:15.447Z,6.95
2018-12-04T08:55:15.467Z,7.07
2018-12-04T08:56:15.441Z,7.12
2018-12-04T08:57:15.435Z,7.16
2018-12-04T08:58:15.434Z,7.63
2018-12-04T08:59:15.427Z,8.03
2018-12-04T09:00:15.448Z,8.63
2018-12-04T09:01:15.418Z,9.02
2018-12-04T09:02:15.418Z,8.68
2018-12-04T09:03:15.413Z,8.81
2018-12-04T09:04:15.414Z,8.53
2018-12-04T09:05:15.509Z,8.30
2018-12-04T09:06:15.408Z,8.03
2018-12-04T09:07:15.407Z,7.99
2018-12-04T09:08:15.436Z,7.85
2018-12-04T09:09:15.400Z,7.71
2018-12-04T09:10:15.425Z,7.59
2018-12-04T09:11:15.399Z,7.62
2018-12-04T09:12:15.396Z,7.66
2018-12-04T09:13:15.396Z,7.63
2018-12-04T09:14:15.390Z,7.59
2018-12-04T09:15:15.414Z,7.55
2018-12-04T09:16:15.384Z,7.56
2018-12-04T09:17:15.384Z,7.49
2018-12-04T09:18:15.440Z,7.40
2018-12-04T09:19:15.399Z,7.44
2018-12-04T09:20:15.406Z,7.49
2018-12-04T09:21:15.380Z,7.59
2018-12-04T09:22:16.066Z,7.50
2018-12-04T09:23:15.417Z,7.55
2018-12-04T09:24:15.369Z,7.59
2018-12-04T09:25:15.427Z,7.58
2018-12-04T09:26:15.376Z,7.49
2018-12-04T09:27:15.368Z,7.58
2018-12-04T09:28:15.351Z,7.49
2018-12-04T09:29:15.393Z,7.47
2018-12-04T09:30:15.402Z,7.45
2018-12-04T09:31:15.343Z,7.47
2018-12-04T09:32:15.337Z,7.45
2018-12-04T09:33:15.336Z,7.52
2018-12-04T09:34:15.330Z,7.49
2018-12-04T09:35:15.366Z,7.66
2018-12-04T09:36:15.324Z,7.66
2018-12-04T09:37:15.323Z,7.71
2018-12-04T09:38:15.341Z,7.75
2018-12-04T09:39:15.492Z,7.79
2018-12-04T09:40:16.099Z,7.78
2018-12-04T09:41:15.314Z,7.67
2018-12-04T09:42:15.330Z,7.75
2018-12-04T09:43:15.303Z,7.71
2018-12-04T09:44:15.298Z,7.74
2018-12-04T09:45:15.319Z,7.58
2018-12-04T09:46:15.295Z,7.59
2018-12-04T09:47:15.298Z,7.58
2018-12-04T09:48:15.287Z,7.60
2018-12-04T09:49:15.284Z,7.55
2018-12-04T09:50:15.306Z,7.66
2018-12-04T09:51:15.275Z,7.69
2018-12-04T09:52:15.272Z,7.74
2018-12-04T09:53:15.271Z,7.72
2018-12-04T09:54:15.264Z,7.72
2018-12-04T09:55:15.289Z,7.60
2018-12-04T09:56:15.257Z,7.75
2018-12-04T09:57:15.255Z,7.66
2018-12-04T09:58:17.824Z,7.74
2018-12-04T09:59:16.913Z,7.62
2018-12-04T10:00:15.282Z,7.79
2018-12-04T10:01:15.242Z,7.84
2018-12-04T10:02:15.238Z,7.85
2018-12-04T10:03:15.234Z,7.81
2018-12-04T10:04:15.229Z,7.90
2018-12-04T10:05:15.255Z,7.93
2018-12-04T10:06:15.275Z,7.99
2018-12-04T10:07:15.219Z,7.89
2018-12-04T10:08:15.218Z,7.96
2018-12-04T10:09:15.218Z,7.87
2018-12-04T10:10:15.238Z,8.00
2018-12-04T10:11:15.208Z,7.93
2018-12-04T10:12:15.208Z,7.94
2018-12-04T10:13:15.202Z,7.99
2018-12-04T10:14:16.213Z,7.96
2018-12-04T10:15:15.226Z,7.85
2018-12-04T10:16:15.190Z,7.93
2018-12-04T10:17:15.191Z,7.97
2018-12-04T10:18:15.187Z,7.92
2018-12-04T10:19:15.183Z,7.99
2018-12-04T10:20:15.207Z,7.94
2018-12-04T10:21:15.179Z,7.99
2018-12-04T10:22:15.979Z,7.92
2018-12-04T10:23:15.494Z,7.94
2018-12-04T10:24:15.350Z,7.93
2018-12-04T10:25:15.190Z,8.03
2018-12-04T10:26:15.161Z,8.08
2018-12-04T10:27:15.159Z,8.15
2018-12-04T10:28:15.156Z,8.04
2018-12-04T10:29:15.163Z,8.17
2018-12-04T10:30:15.177Z,8.18
2018-12-04T10:31:15.146Z,8.12
2018-12-04T10:32:15.147Z,8.11
2018-12-04T10:33:15.231Z,7.99
2018-12-04T10:34:15.147Z,8.00
2018-12-04T10:35:15.160Z,8.04
2018-12-04T10:36:15.151Z,8.04
2018-12-04T10:37:15.198Z,8.07
2018-12-04T10:38:15.157Z,8.10
2018-12-04T10:39:15.154Z,7.96
2018-12-04T10:40:15.123Z,7.93
2018-12-04T10:41:15.122Z,7.96
2018-12-04T10:42:15.184Z,8.04
2018-12-04T10:43:15.141Z,8.07
2018-12-04T10:44:15.120Z,8.08
2018-12-04T10:45:15.133Z,7.99
2018-12-04T10:46:15.108Z,8.07
2018-12-04T10:47:15.133Z,8.04
2018-12-04T10:48:15.098Z,8.18
2018-12-04T10:49:15.096Z,8.25
2018-12-04T10:50:15.123Z,8.18
2018-12-04T10:51:15.110Z,8.21
2018-12-04T10:52:15.114Z,8.21
2018-12-04T10:53:15.091Z,8.18
2018-12-04T10:54:15.083Z,8.20
2018-12-04T10:55:15.827Z,8.10
2018-12-04T10:56:15.172Z,8.21
2018-12-04T10:57:15.137Z,8.20
2018-12-04T10:58:15.106Z,8.11
2018-12-04T10:59:15.073Z,8.14
2018-12-04T11:00:15.070Z,8.12
2018-12-04T11:01:15.092Z,7.94
2018-12-04T11:02:15.072Z,7.92
2018-12-04T11:03:15.061Z,7.89
2018-12-04T11:04:15.062Z,7.67
2018-12-04T11:05:15.057Z,7.56
2018-12-04T11:06:15.084Z,7.56
2018-12-04T11:07:15.076Z,7.47
2018-12-04T11:08:15.050Z,8.40
2018-12-04T11:09:15.047Z,9.04
2018-12-04T11:10:15.046Z,9.52
2018-12-04T11:11:15.068Z,9.71
2018-12-04T11:12:15.043Z,9.46
2018-12-04T11:13:15.043Z,9.06
2018-12-04T11:14:15.039Z,9.39
2018-12-04T11:15:15.039Z,9.20
2018-12-04T11:16:15.067Z,9.06
2018-12-04T11:17:15.046Z,9.06
2018-12-04T11:18:15.039Z,8.83
2018-12-04T11:19:15.038Z,8.48
2018-12-04T11:20:15.043Z,8.29
2018-12-04T11:21:15.066Z,8.10
2018-12-04T11:22:15.038Z,8.04
2018-12-04T11:23:15.039Z,7.84
2018-12-04T11:24:15.038Z,7.77
2018-12-04T11:25:15.036Z,7.58
2018-12-04T11:26:15.061Z,7.49
2018-12-04T11:27:15.032Z,7.87
2018-12-04T11:28:15.039Z,8.08
2018-12-04T11:29:15.034Z,8.72
2018-12-04T11:30:15.031Z,9.27
2018-12-04T11:31:15.056Z,9.76
2018-12-04T11:32:15.030Z,10.14
2018-12-04T11:33:15.028Z,9.81
2018-12-04T11:34:15.031Z,9.39
2018-12-04T11:35:15.057Z,9.39
2018-12-04T11:36:15.031Z,9.18
2018-12-04T11:37:15.059Z,8.97
2018-12-04T11:38:15.033Z,9.05
2018-12-04T11:39:15.032Z,8.91
2018-12-04T11:40:15.034Z,8.91
2018-12-04T11:41:15.057Z,8.93
2018-12-04T11:42:15.035Z,8.84
2018-12-04T11:43:15.032Z,8.76
2018-12-04T11:44:15.033Z,8.86
2018-12-04T11:45:15.033Z,8.81
2018-12-04T11:46:15.060Z,8.75
2018-12-04T11:47:15.056Z,8.63
2018-12-04T11:48:15.031Z,8.54
2018-12-04T11:49:15.030Z,8.68
2018-12-04T11:50:15.032Z,9.38
2018-12-04T11:51:15.054Z,9.21
2018-12-04T11:52:15.029Z,9.01
2018-12-04T11:53:15.029Z,8.79
2018-12-04T11:54:15.028Z,8.66
2018-12-04T11:55:15.030Z,9.23
2018-12-04T11:56:15.052Z,9.10
2018-12-04T11:57:15.029Z,8.84
2018-12-04T11:58:15.029Z,9.34
2018-12-04T11:59:15.027Z,9.75
2018-12-04T12:00:15.026Z,9.97
2018-12-04T12:01:15.056Z,9.78
2018-12-04T12:02:15.029Z,9.71
2018-12-04T12:03:15.036Z,9.86
2018-12-04T12:04:15.037Z,10.04
2018-12-04T12:05:15.036Z,10.18
2018-12-04T12:06:15.063Z,10.36
2018-12-04T12:07:20.420Z,10.42
2018-12-04T12:08:15.040Z,10.40
2018-12-04T12:09:15.045Z,10.39
2018-12-04T12:10:15.046Z,10.33
2018-12-04T12:11:15.075Z,10.55
2018-12-04T12:12:15.053Z,10.37
2018-12-04T12:13:15.058Z,10.58
2018-12-04T12:14:15.061Z,10.62
2018-12-04T12:15:17.927Z,10.76
2018-12-04T12:16:15.099Z,11.02
2018-12-04T12:17:15.077Z,11.11
2018-12-04T12:18:15.083Z,11.06
2018-12-04T12:19:15.085Z,10.39
2018-12-04T12:20:15.089Z,9.97
2018-12-04T12:21:15.122Z,9.45
2018-12-04T12:22:15.099Z,9.04
2018-12-04T12:23:15.104Z,9.01
2018-12-04T12:24:15.108Z,8.97
2018-12-04T12:25:15.113Z,8.69
2018-12-04T12:26:15.147Z,8.68
2018-12-04T12:27:15.122Z,8.58
2018-12-04T12:28:15.146Z,8.65
2018-12-04T12:29:15.122Z,8.47
2018-12-04T12:30:15.124Z,9.10
2018-12-04T12:31:15.124Z,9.25
2018-12-04T12:32:15.150Z,9.02
2018-12-04T12:33:15.125Z,8.76
2018-12-04T12:34:15.126Z,8.65
2018-12-04T12:35:15.128Z,9.04
2018-12-04T12:36:15.131Z,9.46
2018-12-04T12:37:15.164Z,9.66
2018-12-04T12:38:15.134Z,9.85
2018-12-04T12:39:15.137Z,9.71
2018-12-04T12:40:15.138Z,9.49
2018-12-04T12:41:15.137Z,8.88
2018-12-04T12:42:15.171Z,8.47
2018-12-04T12:43:15.143Z,8.07
2018-12-04T12:44:15.146Z,7.93
2018-12-04T12:45:15.145Z,7.62
2018-12-04T12:46:15.149Z,7.56
2018-12-04T12:47:15.171Z,7.45
2018-12-04T12:48:15.145Z,7.40
2018-12-04T12:49:15.145Z,7.26
2018-12-04T12:50:15.145Z,7.22
2018-12-04T12:51:15.150Z,7.08
2018-12-04T12:52:15.176Z,7.08
2018-12-04T12:53:15.143Z,6.99
2018-12-04T12:54:15.144Z,7.20
2018-12-04T12:55:15.138Z,7.50
2018-12-04T12:56:15.141Z,7.77
2018-12-04T12:57:15.163Z,7.99
2018-12-04T12:58:15.136Z,8.25
2018-12-04T12:59:15.133Z,8.48
2018-12-04T13:00:15.132Z,8.84
2018-12-04T13:01:15.138Z,9.09
2018-12-04T13:02:15.159Z,9.28
2018-12-04T13:03:15.156Z,9.31
2018-12-04T13:04:15.131Z,9.20
2018-12-04T13:05:15.133Z,9.09
2018-12-04T13:06:15.129Z,9.35
2018-12-04T13:07:15.127Z,9.39
2018-12-04T13:08:15.156Z,10.03
2018-12-04T13:09:15.129Z,10.37
2018-12-04T13:10:15.133Z,10.76
2018-12-04T13:11:15.132Z,10.84
2018-12-04T13:12:15.143Z,11.01
2018-12-04T13:13:15.163Z,11.21
2018-12-04T13:14:15.135Z,11.29
2018-12-04T13:15:15.135Z,11.25
2018-12-04T13:16:15.138Z,10.99
2018-12-04T13:17:15.142Z,10.94
2018-12-04T13:18:15.172Z,10.71
2018-12-04T13:19:15.158Z,10.46
2018-12-04T13:20:15.149Z,10.59
2018-12-04T13:21:15.152Z,10.68
2018-12-04T13:22:15.155Z,10.86